• Join FlightAware (Why Join?)
  • Login
  • US Flag 
11:46AM EDT


 

Airport Tracker/Info


-or-


 

Live Flight TrackerFlight Track Log ✈ JBU263 ✈ 12-Jun-2013 ✈ KSMF - KLGB

Flight Track Log - Related Links

Times and Time Zones

All times are in EDT time to prevent confusion due to time zone crossing. See the JBU263 flight status page for this flight to view local times or setup timezone preferences in your user account.

Time Position Orientation Groundspeed Altitude Reporting Facility
EDT Latitude Longitude Course Direction KTS MPH feet Rate Location/Type
04:24PM 38.7050 -121.5830 North 25 29  Level FlightAware
04:26PM 38.7010 -121.5800 150° Southeast 100 180 Climbing FlightAware
04:27PM 38.6800 -121.5800 180° South 157 181 600 1,560 Climbing FlightAware
04:27PM 38.6660 -121.5760 167° South 160 184 1,400 1,680 Climbing FlightAware
04:28PM 38.6500 -121.5570 137° Southeast 195 224 1,900 1,080 Climbing FlightAware
04:28PM 38.6340 -121.5280 125° Southeast 241 277 2,400 1,500 Climbing FlightAware
04:28PM 38.6240 -121.5070 121° Southeast 260 299 3,000 3,000 Climbing FlightAware
04:29PM 38.6050 -121.4690 123° Southeast 270 311 4,600 3,480 Climbing FlightAware
04:29PM 38.5870 -121.4310 121° Southeast 274 315 6,300 3,240 Climbing FlightAware
04:30PM 38.5780 -121.4110 120° Southeast 282 325 6,900 2,580 Climbing FlightAware
04:30PM 38.5630 -121.3780 120° Southeast 295 339 7,900 2,580 Climbing FlightAware
04:30PM 38.5560 -121.3630 121° Southeast 290 334 8,600 2,820 Climbing FlightAware
04:31PM 38.5220 -121.2910 121° Southeast 318 366 10,600 2,460 Climbing FlightAware
04:32PM 38.4850 -121.2130 121° Southeast 347 399 12,200 2,280 Climbing FlightAware
04:32PM 38.4530 -121.1440 121° Southeast 358 412 13,800 2,520 Climbing FlightAware
04:33PM 38.4180 -121.0720 122° Southeast 368 423 15,500 2,400 Climbing FlightAware
04:34PM 38.3790 -120.9900 121° Southeast 377 434 17,200 2,340 Climbing FlightAware
04:34PM 38.3390 -120.9060 121° Southeast 383 441 18,900 1,500 Climbing FlightAware
04:35PM 38.2880 -120.8000 121° Southeast 396 456 19,800 1,920 Climbing FlightAware
04:36PM 38.2633 -120.7500 122° Southeast 400 460 21,500 2,580 Climbing FlightAware ADS-B
04:37PM 38.1880 -120.6440 132° Southeast 404 465 23,300 1,620 Climbing FlightAware
04:37PM 38.1260 -120.5800 141° Southeast 413 475 24,400 1,560 Climbing FlightAware
04:38PM 38.0600 -120.5150 142° Southeast 418 481 25,600 1,680 Climbing FlightAware
04:38PM 38.0452 -120.5000 141° Southeast 418 481 25,900 1,740 Climbing FlightAware ADS-B
04:39PM 37.9952 -120.4510 142° Southeast 420 483 26,800 1,440 Climbing FlightAware ADS-B
04:39PM 37.9440 -120.4010 142° Southeast 426 490 27,500 1,260 Climbing FlightAware ADS-B
04:40PM 37.8956 -120.3530 142° Southeast 431 496 28,200 1,500 Climbing FlightAware ADS-B
04:40PM 37.8466 -120.3060 143° Southeast 429 494 29,100 1,380 Climbing FlightAware ADS-B
04:41PM 37.8173 -120.2860 152° Southeast 428 493 29,300 780 Climbing FlightAware ADS-B
04:41PM 37.8047 -120.2810 163° South 427 491 29,400 1,080 Climbing FlightAware ADS-B
04:41PM 37.7463 -120.2650 168° South 427 491 30,000 1,380 Climbing FlightAware ADS-B
04:42PM 37.6320 -120.2360 169° South 422 486 31,500 1,620 Climbing FlightAware
04:43PM 37.5590 -120.2170 168° South 413 475 32,700 1,740 Climbing FlightAware
04:44PM 37.4750 -120.1950 168° South 402 463 34,000 1,500 Climbing FlightAware
04:44PM 37.4000 -120.1760 169° South 394 453 34,900 840 Climbing FlightAware
04:45PM 37.3472 -120.1620 168° South 389 448 35,000 180 Climbing FlightAware ADS-B
04:45PM 37.2941 -120.1490 169° South 390 449 35,100 540 Climbing FlightAware ADS-B
04:46PM 37.2398 -120.1350 168° South 391 450 35,600 960 Climbing FlightAware ADS-B
04:46PM 37.1849 -120.1210 169° South 390 449 36,100 840 Climbing FlightAware ADS-B
04:48PM 37.0750 -120.0930 169° South 388 447 37,000 480 Climbing FlightAware
04:48PM 37.0030 -120.0750 169° South 397 457 37,000  Level FlightAware
04:49PM 36.9260 -120.0550 168° South 389 448 37,000  Level FlightAware
04:50PM 36.8510 -120.0370 169° South 391 450 37,000  Level FlightAware
04:50PM 36.7730 -120.0170 168° South 393 452 37,000  Level FlightAware
04:51PM 36.6760 -119.9920 168° South 389 448 37,000  Level FlightAware
04:52PM 36.6050 -119.9740 168° South 388 447 37,000  Level FlightAware
04:53PM 36.5360 -119.9570 169° South 387 445 37,000  Level FlightAware
04:53PM 36.4570 -119.9370 168° South 386 444 37,000  Level FlightAware
04:54PM 36.3900 -119.9210 169° South 385 443 37,000  Level FlightAware
04:55PM 36.2820 -119.8940 169° South 385 443 37,000  Level FlightAware
04:56PM 36.2160 -119.8770 168° South 384 442 37,000  Level FlightAware
04:56PM 36.1400 -119.8580 169° South 382 440 37,000  Level FlightAware
04:57PM 36.0640 -119.8390 169° South 381 438 37,000  Level FlightAware
04:58PM 35.9940 -119.8220 169° South 380 437 37,000  Level FlightAware
04:58PM 35.9400 -119.8090 169° South 379 436 37,000  Level FlightAware
04:59PM 35.8740 -119.7920 168° South 380 437 37,000  Level FlightAware
05:00PM 35.7540 -119.7630 169° South 383 441 37,000  Level FlightAware
05:01PM 35.6990 -119.7490 168° South 383 441 37,000  Level FlightAware
05:02PM 35.5890 -119.7220 169° South 387 445 37,000  Level FlightAware
05:02PM 35.5130 -119.7040 169° South 387 445 37,000  Level FlightAware
05:03PM 35.4420 -119.6860 168° South 388 447 37,000  Level FlightAware
05:03PM 35.4070 -119.6690 158° South 404 465 37,000  Level FlightAware
05:04PM 35.3490 -119.6250 148° Southeast 405 466 37,000  Level FlightAware
05:05PM 35.2870 -119.5780 148° Southeast 403 464 37,000  Level FlightAware
05:05PM 35.2100 -119.5200 148° Southeast 402 463 37,000  Level FlightAware
05:06PM 35.1540 -119.4760 147° Southeast 402 463 37,000 -240 Level FlightAware
05:07PM 35.0760 -119.4180 149° Southeast 400 460 36,700 -300 Descending FlightAware
05:07PM 35.0260 -119.3800 148° Southeast 397 457 36,600 -840 Descending FlightAware
05:08PM 34.9710 -119.3390 149° Southeast 396 456 35,600 -1,920 Descending FlightAware
05:09PM 34.8780 -119.2690 148° Southeast 390 449 33,700 -2,340 Descending FlightAware
05:10PM 34.8200 -119.2250 148° Southeast 392 451 32,300 -2,400 Descending FlightAware
05:10PM 34.7440 -119.1690 149° Southeast 394 453 30,300 -1,620 Descending FlightAware
05:11PM 34.7120 -119.1450 148° Southeast 389 448 29,700 -1,800 Descending FlightAware
05:12PM 34.5950 -119.0570 148° Southeast 371 427 27,300 -1,860 Descending FlightAware
05:13PM 34.5500 -119.0230 148° Southeast 369 425 27,100 -1,920 Descending FlightAware
05:13PM 34.4780 -118.9700 149° Southeast 356 410 24,800 -2,160 Descending FlightAware
05:15PM 34.3070 -118.8630 153° Southeast 334 384 21,300 -1,740 Descending FlightAware
05:16PM 34.2220 -118.8310 163° South 328 377 19,600 -1,740 Descending FlightAware
05:17PM 34.1590 -118.8070 163° South 324 373 18,400 -1,680 Descending FlightAware
05:18PM 34.1050 -118.7880 164° South 327 376 17,400 -1,680 Descending FlightAware
05:18PM 34.0480 -118.7670 163° South 319 367 16,300 -1,740 Descending FlightAware
05:19PM 33.9820 -118.7430 163° South 311 358 14,900 -1,560 Descending FlightAware
05:20PM 33.9180 -118.7200 163° South 315 362 13,900 -780 Descending FlightAware
05:21PM 33.8680 -118.7010 162° South 319 367 13,900 60 Level FlightAware
05:21PM 33.8100 -118.6800 163° South 314 361 14,000 -180 Climbing FlightAware
05:22PM 33.7520 -118.6590 163° South 300 345 13,700 -900 Descending FlightAware
05:23PM 33.6920 -118.6380 164° South 287 330 12,700 -1,380 Descending FlightAware
05:23PM 33.6500 -118.6230 163° South 289 333 11,800 -1,680 Descending FlightAware
05:24PM 33.5860 -118.5960 161° South 296 341 10,400 -1,560 Descending FlightAware
05:25PM 33.5540 -118.5680 144° Southeast 287 330 9,900 -1,380 Descending FlightAware
05:25PM 33.5310 -118.5210 120° Southeast 297 342 8,900 -1,560 Descending FlightAware
05:26PM 33.5370 -118.4690 82° East 294 338 8,200 -1,320 Descending FlightAware
05:26PM 33.5420 -118.4270 82° East 288 331 7,700 -1,020 Descending FlightAware
05:27PM 33.5490 -118.3670 82° East 269 310 7,100 -900 Descending FlightAware
05:27PM 33.5540 -118.3230 82° East 249 287 6,700 -720 Descending FlightAware
05:28PM 33.5590 -118.2850 81° East 236 272 6,400 -840 Descending FlightAware
05:28PM 33.5640 -118.2470 81° East 233 268 5,900 -1,020 Descending FlightAware
05:29PM 33.5690 -118.2070 81° East 229 264 5,400 -1,020 Descending FlightAware
05:29PM 33.5740 -118.1780 78° East 229 264 5,000 -1,140 Descending FlightAware
05:30PM 33.5880 -118.1440 64° Northeast 229 264 4,400 -1,020 Descending FlightAware
05:30PM 33.6110 -118.0970 60° Northeast 222 255 3,800 -900 Descending FlightAware
05:31PM 33.6180 -118.0860 53° Northeast 224 258 3,600 -900 Descending FlightAware
05:31PM 33.6390 -118.0630 42° Northeast 218 251 3,200 -900 Descending FlightAware
05:32PM 33.6600 -118.0410 41° Northeast 213 245 2,800 -1,020 Descending FlightAware
05:32PM 33.6870 -118.0210 32° Northeast 213 245 2,200 -960 Descending FlightAware
05:32PM 33.6990 -118.0230 352° North 207 238 2,100 -480 Descending FlightAware
05:33PM 33.7230 -118.0370 334° Northwest 185 213 1,900 -480 Descending FlightAware
05:33PM 33.7370 -118.0540 315° West 174 200 1,700 -540 Descending FlightAware
05:33PM 33.7430 -118.0610 316° Northwest 172 198 1,600 -480 Descending FlightAware
05:34PM 33.7590 -118.0810 314° West 154 177 1,400 -660 Descending FlightAware
05:34PM 33.7730 -118.0970 316° Northwest 147 169 1,000 -780 Descending FlightAware
05:35PM 33.7870 -118.1150 313° West 142 163 700 -720 Descending FlightAware
05:35PM 33.8010 -118.1310 316° Northwest 142 163 300 -840 Descending FlightAware
05:36PM 33.8120 -118.1450 313° West 144 166 -720 Descending FlightAware
05:36PM 33.8210 -118.1550 317° Northwest 32 37  Level FlightAware
05:37PM 33.8230 -118.1580 309° West 32 37  Level FlightAware
05:38PM 33.8220 -118.1510 100° East 17 20  Level FlightAware
05:39PM 33.8210 -118.1470 107° East 20 23  Level FlightAware